sensor_id;sensor_type;location;lat;lon;timestamp;P1;P2;P0
67714;PMS7003;54505;44.022;20.458;2023-02-11T00:00:29;130.50;105.75;66.50
67714;PMS7003;54505;44.022;20.458;2023-02-11T00:03:15;117.00;97.00;55.50
67714;PMS7003;54505;44.022;20.458;2023-02-11T00:05:41;114.50;90.50;57.75
67714;PMS7003;54505;44.022;20.458;2023-02-11T00:08:06;116.50;92.50;54.00
67714;PMS7003;54505;44.022;20.458;2023-02-11T00:10:32;113.25;88.00;52.00
67714;PMS7003;54505;44.022;20.458;2023-02-11T00:12:58;120.50;90.25;55.50
67714;PMS7003;54505;44.022;20.458;2023-02-11T00:15:23;146.75;120.50;71.25
67714;PMS7003;54505;44.022;20.458;2023-02-11T00:17:49;136.75;104.75;64.00
67714;PMS7003;54505;44.022;20.458;2023-02-11T00:20:14;131.50;107.50;66.25
67714;PMS7003;54505;44.022;20.458;2023-02-11T00:22:40;138.00;114.25;63.25
67714;PMS7003;54505;44.022;20.458;2023-02-11T00:25:06;114.75;79.75;42.00
67714;PMS7003;54505;44.022;20.458;2023-02-11T00:27:32;128.25;110.25;71.25
67714;PMS7003;54505;44.022;20.458;2023-02-11T00:29:57;140.50;108.00;66.50
67714;PMS7003;54505;44.022;20.458;2023-02-11T00:32:25;130.00;111.50;64.00
67714;PMS7003;54505;44.022;20.458;2023-02-11T00:34:51;114.50;94.25;55.00
67714;PMS7003;54505;44.022;20.458;2023-02-11T00:37:17;116.25;97.25;59.75
67714;PMS7003;54505;44.022;20.458;2023-02-11T00:39:42;117.75;94.00;57.75
67714;PMS7003;54505;44.022;20.458;2023-02-11T00:42:08;117.75;96.00;57.50
67714;PMS7003;54505;44.022;20.458;2023-02-11T00:44:38;103.75;82.50;56.00
67714;PMS7003;54505;44.022;20.458;2023-02-11T00:47:04;119.50;97.75;59.00
67714;PMS7003;54505;44.022;20.458;2023-02-11T00:49:29;118.75;101.25;55.50
67714;PMS7003;54505;44.022;20.458;2023-02-11T00:51:55;121.75;102.00;62.00
67714;PMS7003;54505;44.022;20.458;2023-02-11T00:54:21;125.75;101.25;60.25
67714;PMS7003;54505;44.022;20.458;2023-02-11T00:56:46;117.00;88.50;55.50
67714;PMS7003;54505;44.022;20.458;2023-02-11T00:59:12;115.75;98.75;52.50
67714;PMS7003;54505;44.022;20.458;2023-02-11T01:01:38;104.25;77.50;52.00
67714;PMS7003;54505;44.022;20.458;2023-02-11T01:04:04;117.25;92.25;55.00
67714;PMS7003;54505;44.022;20.458;2023-02-11T01:06:29;136.75;111.50;62.50
67714;PMS7003;54505;44.022;20.458;2023-02-11T01:08:55;125.75;99.25;52.00
67714;PMS7003;54505;44.022;20.458;2023-02-11T01:11:21;122.50;91.50;52.00
67714;PMS7003;54505;44.022;20.458;2023-02-11T01:13:47;107.00;80.50;52.00
67714;PMS7003;54505;44.022;20.458;2023-02-11T01:16:13;111.25;78.00;50.50
67714;PMS7003;54505;44.022;20.458;2023-02-11T01:18:39;105.25;79.25;51.00
67714;PMS7003;54505;44.022;20.458;2023-02-11T01:21:06;97.50;74.50;50.00
67714;PMS7003;54505;44.022;20.458;2023-02-11T01:23:32;97.50;66.00;45.00
67714;PMS7003;54505;44.022;20.458;2023-02-11T01:25:57;94.25;71.50;45.25
67714;PMS7003;54505;44.022;20.458;2023-02-11T01:28:24;88.50;66.50;41.00
67714;PMS7003;54505;44.022;20.458;2023-02-11T01:30:50;94.75;69.00;42.50
67714;PMS7003;54505;44.022;20.458;2023-02-11T01:33:18;108.25;84.75;51.25
67714;PMS7003;54505;44.022;20.458;2023-02-11T01:35:44;116.00;91.50;56.50
67714;PMS7003;54505;44.022;20.458;2023-02-11T01:38:14;108.00;83.00;51.50
67714;PMS7003;54505;44.022;20.458;2023-02-11T01:40:45;105.50;74.50;46.00
67714;PMS7003;54505;44.022;20.458;2023-02-11T01:43:10;110.00;80.75;50.00
67714;PMS7003;54505;44.022;20.458;2023-02-11T01:48:19;120.00;97.75;54.75
67714;PMS7003;54505;44.022;20.458;2023-02-11T01:50:46;136.00;112.75;66.50
67714;PMS7003;54505;44.022;20.458;2023-02-11T01:53:13;125.25;100.75;57.75
67714;PMS7003;54505;44.022;20.458;2023-02-11T01:55:58;114.50;95.50;55.00
67714;PMS7003;54505;44.022;20.458;2023-02-11T01:58:43;111.25;87.25;56.00
67714;PMS7003;54505;44.022;20.458;2023-02-11T02:01:11;119.00;95.00;54.25
67714;PMS7003;54505;44.022;20.458;2023-02-11T02:03:38;102.75;77.50;41.50
67714;PMS7003;54505;44.022;20.458;2023-02-11T02:06:09;105.00;85.50;51.00
67714;PMS7003;54505;44.022;20.458;2023-02-11T02:11:02;108.50;79.00;43.00
67714;PMS7003;54505;44.022;20.458;2023-02-11T02:13:29;115.00;90.25;58.50
67714;PMS7003;54505;44.022;20.458;2023-02-11T02:15:56;101.50;77.50;52.00
67714;PMS7003;54505;44.022;20.458;2023-02-11T02:20:54;116.00;98.50;54.75
67714;PMS7003;54505;44.022;20.458;2023-02-11T02:28:30;102.50;75.50;48.75
67714;PMS7003;54505;44.022;20.458;2023-02-11T02:38:37;112.50;82.00;51.75
67714;PMS7003;54505;44.022;20.458;2023-02-11T02:41:07;103.25;76.00;47.00
67714;PMS7003;54505;44.022;20.458;2023-02-11T02:43:33;87.50;63.25;30.75
67714;PMS7003;54505;44.022;20.458;2023-02-11T02:48:35;101.50;73.50;45.25
67714;PMS7003;54505;44.022;20.458;2023-02-11T02:56:24;104.00;75.25;47.25
67714;PMS7003;54505;44.022;20.458;2023-02-11T03:06:51;104.75;78.50;49.25
67714;PMS7003;54505;44.022;20.458;2023-02-11T03:12:17;113.50;83.75;51.00
67714;PMS7003;54505;44.022;20.458;2023-02-11T03:14:44;114.50;86.25;50.00
67714;PMS7003;54505;44.022;20.458;2023-02-11T03:17:10;119.00;94.50;58.50
67714;PMS7003;54505;44.022;20.458;2023-02-11T03:19:39;115.25;89.25;51.25
67714;PMS7003;54505;44.022;20.458;2023-02-11T03:24:49;113.50;86.50;48.50
67714;PMS7003;54505;44.022;20.458;2023-02-11T03:29:42;103.50;88.00;56.25
67714;PMS7003;54505;44.022;20.458;2023-02-11T03:34:52;123.75;95.00;60.50
67714;PMS7003;54505;44.022;20.458;2023-02-11T03:37:53;115.50;95.50;52.50
67714;PMS7003;54505;44.022;20.458;2023-02-11T03:40:11;108.25;82.75;51.25
67714;PMS7003;54505;44.022;20.458;2023-02-11T03:42:47;114.50;93.25;54.50
67714;PMS7003;54505;44.022;20.458;2023-02-11T03:45:15;112.50;84.75;53.25
67714;PMS7003;54505;44.022;20.458;2023-02-11T03:47:43;108.00;76.50;48.00
67714;PMS7003;54505;44.022;20.458;2023-02-11T03:50:10;104.00;76.25;48.25
67714;PMS7003;54505;44.022;20.458;2023-02-11T03:52:37;101.00;73.25;46.00
67714;PMS7003;54505;44.022;20.458;2023-02-11T03:55:05;91.00;67.00;40.00
67714;PMS7003;54505;44.022;20.458;2023-02-11T03:57:33;84.50;60.50;38.75
67714;PMS7003;54505;44.022;20.458;2023-02-11T03:59:58;96.00;68.00;41.00
67714;PMS7003;54505;44.022;20.458;2023-02-11T04:02:29;82.25;60.50;42.25
67714;PMS7003;54505;44.022;20.458;2023-02-11T04:04:56;83.75;64.50;42.50
67714;PMS7003;54505;44.022;20.458;2023-02-11T04:07:22;89.25;69.50;45.00
67714;PMS7003;54505;44.022;20.458;2023-02-11T04:09:48;104.50;72.50;46.50
67714;PMS7003;54505;44.022;20.458;2023-02-11T04:12:14;92.50;70.00;43.00
67714;PMS7003;54505;44.022;20.458;2023-02-11T04:14:39;96.75;71.50;49.00
67714;PMS7003;54505;44.022;20.458;2023-02-11T04:17:05;104.75;81.00;49.00
67714;PMS7003;54505;44.022;20.458;2023-02-11T04:19:31;102.50;75.75;48.25
67714;PMS7003;54505;44.022;20.458;2023-02-11T04:21:56;103.00;76.50;49.00
67714;PMS7003;54505;44.022;20.458;2023-02-11T04:24:22;110.50;80.00;48.25
67714;PMS7003;54505;44.022;20.458;2023-02-11T04:26:48;103.25;75.25;48.00
67714;PMS7003;54505;44.022;20.458;2023-02-11T04:29:13;103.75;73.00;42.25
67714;PMS7003;54505;44.022;20.458;2023-02-11T04:31:39;125.25;90.25;55.75
67714;PMS7003;54505;44.022;20.458;2023-02-11T04:34:05;119.00;101.50;56.25
67714;PMS7003;54505;44.022;20.458;2023-02-11T04:36:31;125.25;104.25;63.25
67714;PMS7003;54505;44.022;20.458;2023-02-11T04:38:56;118.50;93.50;55.00
67714;PMS7003;54505;44.022;20.458;2023-02-11T04:41:22;114.25;83.75;51.50
67714;PMS7003;54505;44.022;20.458;2023-02-11T04:43:47;108.00;88.00;52.00
67714;PMS7003;54505;44.022;20.458;2023-02-11T04:46:13;107.00;83.25;49.50
67714;PMS7003;54505;44.022;20.458;2023-02-11T04:48:39;109.25;85.50;54.75
67714;PMS7003;54505;44.022;20.458;2023-02-11T04:51:05;105.50;77.00;51.00
67714;PMS7003;54505;44.022;20.458;2023-02-11T04:53:30;92.00;73.00;46.00
67714;PMS7003;54505;44.022;20.458;2023-02-11T04:55:56;94.75;71.50;45.50
67714;PMS7003;54505;44.022;20.458;2023-02-11T04:58:21;108.00;73.50;49.00
67714;PMS7003;54505;44.022;20.458;2023-02-11T05:00:48;95.00;72.00;42.00
67714;PMS7003;54505;44.022;20.458;2023-02-11T05:03:14;95.50;72.00;43.50
67714;PMS7003;54505;44.022;20.458;2023-02-11T05:05:41;102.50;75.25;45.00
67714;PMS7003;54505;44.022;20.458;2023-02-11T05:08:07;116.50;82.75;52.00
67714;PMS7003;54505;44.022;20.458;2023-02-11T05:10:33;115.50;88.00;52.00
67714;PMS7003;54505;44.022;20.458;2023-02-11T05:12:59;116.75;98.75;56.00
67714;PMS7003;54505;44.022;20.458;2023-02-11T05:15:25;110.75;87.00;55.50
67714;PMS7003;54505;44.022;20.458;2023-02-11T05:17:50;117.00;95.25;55.25
67714;PMS7003;54505;44.022;20.458;2023-02-11T05:20:16;113.25;91.25;54.50
67714;PMS7003;54505;44.022;20.458;2023-02-11T05:22:42;123.00;101.75;59.00
67714;PMS7003;54505;44.022;20.458;2023-02-11T05:25:07;110.00;81.75;51.50
67714;PMS7003;54505;44.022;20.458;2023-02-11T05:27:33;120.00;91.50;57.00
67714;PMS7003;54505;44.022;20.458;2023-02-11T05:29:59;76.75;56.50;9.75
67714;PMS7003;54505;44.022;20.458;2023-02-11T05:32:24;115.75;91.25;54.00
67714;PMS7003;54505;44.022;20.458;2023-02-11T05:34:50;126.00;102.50;56.00
67714;PMS7003;54505;44.022;20.458;2023-02-11T05:37:16;117.50;91.50;54.75
67714;PMS7003;54505;44.022;20.458;2023-02-11T05:39:41;119.75;98.25;55.00
67714;PMS7003;54505;44.022;20.458;2023-02-11T05:42:07;116.00;85.50;55.00
67714;PMS7003;54505;44.022;20.458;2023-02-11T05:44:33;112.25;83.00;51.00
67714;PMS7003;54505;44.022;20.458;2023-02-11T05:46:58;108.50;77.75;49.50
67714;PMS7003;54505;44.022;20.458;2023-02-11T05:49:24;118.25;96.00;60.00
67714;PMS7003;54505;44.022;20.458;2023-02-11T05:51:50;103.50;78.00;47.00
67714;PMS7003;54505;44.022;20.458;2023-02-11T05:54:16;108.50;81.75;51.00
67714;PMS7003;54505;44.022;20.458;2023-02-11T05:56:41;109.75;81.00;50.50
67714;PMS7003;54505;44.022;20.458;2023-02-11T05:59:07;109.25;82.50;52.00
67714;PMS7003;54505;44.022;20.458;2023-02-11T06:01:32;111.50;82.00;52.00
67714;PMS7003;54505;44.022;20.458;2023-02-11T06:03:58;108.75;84.50;51.00
67714;PMS7003;54505;44.022;20.458;2023-02-11T06:06:24;113.75;85.00;53.75
67714;PMS7003;54505;44.022;20.458;2023-02-11T06:08:50;118.00;97.25;56.00
67714;PMS7003;54505;44.022;20.458;2023-02-11T06:11:16;117.00;86.25;51.50
67714;PMS7003;54505;44.022;20.458;2023-02-11T06:13:42;110.50;81.75;51.00
67714;PMS7003;54505;44.022;20.458;2023-02-11T06:16:07;113.75;92.75;55.00
67714;PMS7003;54505;44.022;20.458;2023-02-11T06:18:33;109.50;85.50;53.25
67714;PMS7003;54505;44.022;20.458;2023-02-11T06:20:59;110.75;85.50;52.00
67714;PMS7003;54505;44.022;20.458;2023-02-11T06:23:25;119.00;102.75;61.50
67714;PMS7003;54505;44.022;20.458;2023-02-11T06:25:51;130.50;102.00;60.25
67714;PMS7003;54505;44.022;20.458;2023-02-11T06:28:17;92.75;66.00;42.25
67714;PMS7003;54505;44.022;20.458;2023-02-11T06:30:42;101.25;78.00;47.00
67714;PMS7003;54505;44.022;20.458;2023-02-11T06:33:08;103.75;77.00;49.00
67714;PMS7003;54505;44.022;20.458;2023-02-11T06:35:34;102.25;78.00;50.00
67714;PMS7003;54505;44.022;20.458;2023-02-11T06:38:01;109.00;83.75;51.00
67714;PMS7003;54505;44.022;20.458;2023-02-11T06:40:26;115.50;88.50;51.00
67714;PMS7003;54505;44.022;20.458;2023-02-11T06:42:52;113.00;86.75;54.75
67714;PMS7003;54505;44.022;20.458;2023-02-11T06:45:18;112.75;85.25;52.00
67714;PMS7003;54505;44.022;20.458;2023-02-11T06:47:45;115.25;92.25;58.00
67714;PMS7003;54505;44.022;20.458;2023-02-11T06:50:11;111.00;83.25;51.50
67714;PMS7003;54505;44.022;20.458;2023-02-11T06:52:37;111.25;87.25;52.00
67714;PMS7003;54505;44.022;20.458;2023-02-11T06:55:03;109.50;87.75;57.25
67714;PMS7003;54505;44.022;20.458;2023-02-11T06:57:29;122.00;100.50;59.00
67714;PMS7003;54505;44.022;20.458;2023-02-11T06:59:55;132.75;110.50;65.75
67714;PMS7003;54505;44.022;20.458;2023-02-11T07:02:21;130.00;111.00;62.50
67714;PMS7003;54505;44.022;20.458;2023-02-11T07:04:47;135.25;111.50;65.00
67714;PMS7003;54505;44.022;20.458;2023-02-11T07:07:13;141.00;115.50;68.75
67714;PMS7003;54505;44.022;20.458;2023-02-11T07:09:38;128.75;107.50;68.25
67714;PMS7003;54505;44.022;20.458;2023-02-11T07:12:04;137.50;116.50;71.00
67714;PMS7003;54505;44.022;20.458;2023-02-11T07:14:29;143.25;123.75;72.25
67714;PMS7003;54505;44.022;20.458;2023-02-11T07:16:55;135.75;114.00;75.00
67714;PMS7003;54505;44.022;20.458;2023-02-11T07:19:21;157.75;134.00;78.75
67714;PMS7003;54505;44.022;20.458;2023-02-11T07:21:47;146.25;121.00;73.00
67714;PMS7003;54505;44.022;20.458;2023-02-11T07:24:13;136.00;118.75;75.50
67714;PMS7003;54505;44.022;20.458;2023-02-11T07:26:39;147.25;119.00;74.50
67714;PMS7003;54505;44.022;20.458;2023-02-11T07:29:04;177.00;137.00;78.25
67714;PMS7003;54505;44.022;20.458;2023-02-11T07:31:30;164.50;134.00;81.50
67714;PMS7003;54505;44.022;20.458;2023-02-11T07:33:57;168.25;138.50;84.00
67714;PMS7003;54505;44.022;20.458;2023-02-11T07:36:24;158.50;130.50;76.75
67714;PMS7003;54505;44.022;20.458;2023-02-11T07:38:50;138.50;117.50;67.75
67714;PMS7003;54505;44.022;20.458;2023-02-11T07:41:17;152.00;117.75;70.50
67714;PMS7003;54505;44.022;20.458;2023-02-11T07:43:43;153.75;133.00;77.75
67714;PMS7003;54505;44.022;20.458;2023-02-11T07:46:10;165.25;134.75;78.75
67714;PMS7003;54505;44.022;20.458;2023-02-11T07:48:38;175.50;137.00;85.50
67714;PMS7003;54505;44.022;20.458;2023-02-11T07:53:32;183.75;146.25;84.75
67714;PMS7003;54505;44.022;20.458;2023-02-11T07:55:58;207.75;174.00;97.50
67714;PMS7003;54505;44.022;20.458;2023-02-11T07:58:24;185.75;142.50;88.00
67714;PMS7003;54505;44.022;20.458;2023-02-11T08:00:49;185.50;148.50;85.75
67714;PMS7003;54505;44.022;20.458;2023-02-11T08:03:15;190.25;160.75;93.00
67714;PMS7003;54505;44.022;20.458;2023-02-11T08:05:41;172.50;143.75;78.00
67714;PMS7003;54505;44.022;20.458;2023-02-11T08:08:08;177.25;150.00;82.50
67714;PMS7003;54505;44.022;20.458;2023-02-11T08:10:33;173.00;144.50;88.50
67714;PMS7003;54505;44.022;20.458;2023-02-11T08:12:59;193.75;152.25;89.00
67714;PMS7003;54505;44.022;20.458;2023-02-11T08:15:25;164.50;131.25;85.50
67714;PMS7003;54505;44.022;20.458;2023-02-11T08:17:50;172.25;140.25;89.00
67714;PMS7003;54505;44.022;20.458;2023-02-11T08:20:16;159.00;138.00;80.75
67714;PMS7003;54505;44.022;20.458;2023-02-11T08:22:42;158.25;128.00;75.25
67714;PMS7003;54505;44.022;20.458;2023-02-11T08:25:07;151.25;122.75;75.25
67714;PMS7003;54505;44.022;20.458;2023-02-11T08:27:33;162.00;128.75;81.25
67714;PMS7003;54505;44.022;20.458;2023-02-11T08:29:59;120.00;107.50;66.25
67714;PMS7003;54505;44.022;20.458;2023-02-11T08:32:24;141.00;117.75;71.25
67714;PMS7003;54505;44.022;20.458;2023-02-11T08:34:50;152.50;124.75;75.50
67714;PMS7003;54505;44.022;20.458;2023-02-11T08:37:17;149.00;117.50;75.50
67714;PMS7003;54505;44.022;20.458;2023-02-11T08:39:43;124.00;107.75;65.25
67714;PMS7003;54505;44.022;20.458;2023-02-11T08:42:08;123.50;115.50;69.25
67714;PMS7003;54505;44.022;20.458;2023-02-11T08:44:34;141.75;120.25;66.25
67714;PMS7003;54505;44.022;20.458;2023-02-11T08:47:00;146.00;113.25;63.50
67714;PMS7003;54505;44.022;20.458;2023-02-11T08:49:25;144.25;121.75;73.25
67714;PMS7003;54505;44.022;20.458;2023-02-11T08:51:51;157.50;131.75;78.75
67714;PMS7003;54505;44.022;20.458;2023-02-11T08:54:18;160.00;124.50;73.75
67714;PMS7003;54505;44.022;20.458;2023-02-11T08:56:44;148.00;118.75;73.75
67714;PMS7003;54505;44.022;20.458;2023-02-11T08:59:12;123.75;105.50;68.00
67714;PMS7003;54505;44.022;20.458;2023-02-11T09:01:38;143.25;119.75;72.25
67714;PMS7003;54505;44.022;20.458;2023-02-11T09:04:04;114.00;98.00;64.25
67714;PMS7003;54505;44.022;20.458;2023-02-11T09:06:29;142.75;120.75;72.25
67714;PMS7003;54505;44.022;20.458;2023-02-11T09:08:56;163.75;128.00;74.75
67714;PMS7003;54505;44.022;20.458;2023-02-11T09:11:24;137.75;121.25;70.75
67714;PMS7003;54505;44.022;20.458;2023-02-11T09:13:50;183.50;150.50;83.50
67714;PMS7003;54505;44.022;20.458;2023-02-11T09:16:19;109.75;84.50;60.50
67714;PMS7003;54505;44.022;20.458;2023-02-11T09:18:46;106.50;84.25;52.50
67714;PMS7003;54505;44.022;20.458;2023-02-11T09:21:12;115.00;96.25;60.00
67714;PMS7003;54505;44.022;20.458;2023-02-11T09:23:38;109.00;86.00;50.00
67714;PMS7003;54505;44.022;20.458;2023-02-11T09:26:06;126.25;106.00;60.75
67714;PMS7003;54505;44.022;20.458;2023-02-11T09:28:32;102.00;78.50;48.50
67714;PMS7003;54505;44.022;20.458;2023-02-11T09:30:58;105.25;84.00;54.50
67714;PMS7003;54505;44.022;20.458;2023-02-11T09:33:23;108.00;77.75;47.50
67714;PMS7003;54505;44.022;20.458;2023-02-11T09:35:49;103.25;79.50;47.50
67714;PMS7003;54505;44.022;20.458;2023-02-11T09:38:15;68.50;55.25;35.00
67714;PMS7003;54505;44.022;20.458;2023-02-11T09:40:41;67.25;51.75;32.25
67714;PMS7003;54505;44.022;20.458;2023-02-11T09:43:11;69.50;53.75;32.25
67714;PMS7003;54505;44.022;20.458;2023-02-11T09:45:40;64.75;51.75;34.25
67714;PMS7003;54505;44.022;20.458;2023-02-11T09:48:11;67.25;49.75;31.75
67714;PMS7003;54505;44.022;20.458;2023-02-11T09:50:39;74.00;53.25;33.50
67714;PMS7003;54505;44.022;20.458;2023-02-11T09:55:42;78.00;56.00;36.00
67714;PMS7003;54505;44.022;20.458;2023-02-11T09:58:16;73.50;54.50;35.25
67714;PMS7003;54505;44.022;20.458;2023-02-11T10:11:12;61.00;49.75;34.00
67714;PMS7003;54505;44.022;20.458;2023-02-11T10:18:43;56.75;45.50;30.00
67714;PMS7003;54505;44.022;20.458;2023-02-11T10:23:40;66.75;51.00;29.75
67714;PMS7003;54505;44.022;20.458;2023-02-11T10:26:16;71.75;54.50;34.75
67714;PMS7003;54505;44.022;20.458;2023-02-11T10:28:43;70.25;53.25;34.50
67714;PMS7003;54505;44.022;20.458;2023-02-11T10:36:12;58.75;48.25;31.25
67714;PMS7003;54505;44.022;20.458;2023-02-11T10:38:39;62.25;49.75;33.50
67714;PMS7003;54505;44.022;20.458;2023-02-11T10:41:04;66.50;53.00;32.00
67714;PMS7003;54505;44.022;20.458;2023-02-11T10:43:31;61.00;50.75;33.25
67714;PMS7003;54505;44.022;20.458;2023-02-11T10:45:57;62.75;44.75;31.75
67714;PMS7003;54505;44.022;20.458;2023-02-11T10:51:44;66.25;50.75;32.50
67714;PMS7003;54505;44.022;20.458;2023-02-11T10:56:24;66.00;49.25;31.50
67714;PMS7003;54505;44.022;20.458;2023-02-11T10:58:55;45.50;28.00;10.50
67714;PMS7003;54505;44.022;20.458;2023-02-11T11:01:22;66.75;52.75;33.25
67714;PMS7003;54505;44.022;20.458;2023-02-11T11:03:49;75.00;52.75;33.25
67714;PMS7003;54505;44.022;20.458;2023-02-11T11:06:15;68.00;51.75;32.75
67714;PMS7003;54505;44.022;20.458;2023-02-11T11:08:47;66.50;51.75;31.50
67714;PMS7003;54505;44.022;20.458;2023-02-11T11:13:40;71.25;53.25;32.75
67714;PMS7003;54505;44.022;20.458;2023-02-11T11:18:31;80.25;58.00;36.75
67714;PMS7003;54505;44.022;20.458;2023-02-11T11:20:58;70.75;56.25;35.50
67714;PMS7003;54505;44.022;20.458;2023-02-11T11:23:24;77.25;58.75;37.50
67714;PMS7003;54505;44.022;20.458;2023-02-11T11:26:06;75.00;56.75;35.75
67714;PMS7003;54505;44.022;20.458;2023-02-11T11:29:20;75.25;59.00;37.00
67714;PMS7003;54505;44.022;20.458;2023-02-11T11:31:44;76.00;57.00;39.25
67714;PMS7003;54505;44.022;20.458;2023-02-11T11:34:21;80.50;60.50;39.50
67714;PMS7003;54505;44.022;20.458;2023-02-11T11:36:47;79.50;62.00;39.50
67714;PMS7003;54505;44.022;20.458;2023-02-11T11:39:47;63.00;50.25;33.25
67714;PMS7003;54505;44.022;20.458;2023-02-11T11:45:00;79.75;57.25;38.00
67714;PMS7003;54505;44.022;20.458;2023-02-11T11:51:27;84.00;62.75;40.00
67714;PMS7003;54505;44.022;20.458;2023-02-11T11:53:23;81.75;59.25;40.00
67714;PMS7003;54505;44.022;20.458;2023-02-11T11:58:52;85.50;61.50;39.00
67714;PMS7003;54505;44.022;20.458;2023-02-11T12:16:52;69.50;54.00;32.75
67714;PMS7003;54505;44.022;20.458;2023-02-11T12:24:40;64.25;52.50;34.25
67714;PMS7003;54505;44.022;20.458;2023-02-11T12:29:38;68.00;52.50;34.00
67714;PMS7003;54505;44.022;20.458;2023-02-11T12:37:28;70.50;53.50;35.00
67714;PMS7003;54505;44.022;20.458;2023-02-11T12:43:23;85.50;64.25;40.50
67714;PMS7003;54505;44.022;20.458;2023-02-11T12:45:48;70.25;55.50;36.75
67714;PMS7003;54505;44.022;20.458;2023-02-11T12:53:31;65.75;48.00;33.75
67714;PMS7003;54505;44.022;20.458;2023-02-11T12:56:02;70.00;53.00;35.75
67714;PMS7003;54505;44.022;20.458;2023-02-11T12:58:30;63.50;51.00;34.00
67714;PMS7003;54505;44.022;20.458;2023-02-11T13:01:09;73.00;56.00;37.00
67714;PMS7003;54505;44.022;20.458;2023-02-11T13:03:42;64.50;53.25;36.25
67714;PMS7003;54505;44.022;20.458;2023-02-11T13:06:19;58.75;44.50;29.00
67714;PMS7003;54505;44.022;20.458;2023-02-11T13:08:50;78.75;59.25;37.00
67714;PMS7003;54505;44.022;20.458;2023-02-11T13:11:19;66.50;54.00;34.25
67714;PMS7003;54505;44.022;20.458;2023-02-11T13:13:48;68.75;52.25;33.25
67714;PMS7003;54505;44.022;20.458;2023-02-11T13:31:35;68.25;53.50;35.00
67714;PMS7003;54505;44.022;20.458;2023-02-11T13:34:01;64.75;50.00;30.75
67714;PMS7003;54505;44.022;20.458;2023-02-11T13:36:28;63.25;46.25;29.00
67714;PMS7003;54505;44.022;20.458;2023-02-11T13:38:58;62.75;49.75;31.50
67714;PMS7003;54505;44.022;20.458;2023-02-11T13:41:28;63.50;48.75;29.25
67714;PMS7003;54505;44.022;20.458;2023-02-11T13:43:58;69.00;55.50;34.50
67714;PMS7003;54505;44.022;20.458;2023-02-11T13:46:24;73.00;55.50;35.25
67714;PMS7003;54505;44.022;20.458;2023-02-11T13:48:51;73.75;57.75;37.50
67714;PMS7003;54505;44.022;20.458;2023-02-11T13:51:18;75.75;55.50;35.25
67714;PMS7003;54505;44.022;20.458;2023-02-11T13:53:58;70.75;54.75;34.00
67714;PMS7003;54505;44.022;20.458;2023-02-11T13:58:56;82.25;61.00;37.50
67714;PMS7003;54505;44.022;20.458;2023-02-11T14:01:40;78.50;60.25;39.00
67714;PMS7003;54505;44.022;20.458;2023-02-11T14:04:21;81.75;61.75;39.00
67714;PMS7003;54505;44.022;20.458;2023-02-11T14:07:25;73.00;57.00;36.50
67714;PMS7003;54505;44.022;20.458;2023-02-11T14:15:38;80.00;56.25;37.25
67714;PMS7003;54505;44.022;20.458;2023-02-11T14:18:38;81.00;63.50;41.50
67714;PMS7003;54505;44.022;20.458;2023-02-11T14:23:37;77.25;58.00;37.00
67714;PMS7003;54505;44.022;20.458;2023-02-11T14:26:09;71.75;56.00;33.50
67714;PMS7003;54505;44.022;20.458;2023-02-11T14:28:39;80.00;61.50;40.00
67714;PMS7003;54505;44.022;20.458;2023-02-11T14:31:10;70.25;54.75;36.00
67714;PMS7003;54505;44.022;20.458;2023-02-11T14:33:40;65.50;48.75;31.00
67714;PMS7003;54505;44.022;20.458;2023-02-11T14:41:08;77.50;59.25;38.75
67714;PMS7003;54505;44.022;20.458;2023-02-11T14:43:37;78.00;59.75;38.50
67714;PMS7003;54505;44.022;20.458;2023-02-11T14:46:07;78.25;60.75;38.25
67714;PMS7003;54505;44.022;20.458;2023-02-11T14:48:33;77.00;58.25;37.25
67714;PMS7003;54505;44.022;20.458;2023-02-11T14:51:02;88.00;67.25;45.25
67714;PMS7003;54505;44.022;20.458;2023-02-11T14:53:28;73.00;56.75;36.50
67714;PMS7003;54505;44.022;20.458;2023-02-11T14:55:55;76.00;57.25;36.25
67714;PMS7003;54505;44.022;20.458;2023-02-11T14:58:22;85.00;62.50;40.25
67714;PMS7003;54505;44.022;20.458;2023-02-11T15:00:52;103.75;83.75;49.25
67714;PMS7003;54505;44.022;20.458;2023-02-11T15:05:57;89.00;65.50;40.50
67714;PMS7003;54505;44.022;20.458;2023-02-11T15:08:23;71.00;56.25;36.50
67714;PMS7003;54505;44.022;20.458;2023-02-11T15:10:50;80.75;59.25;37.50
67714;PMS7003;54505;44.022;20.458;2023-02-11T15:13:17;86.00;62.25;40.50
67714;PMS7003;54505;44.022;20.458;2023-02-11T15:15:44;83.75;62.25;39.25
67714;PMS7003;54505;44.022;20.458;2023-02-11T15:18:16;82.75;61.75;40.25
67714;PMS7003;54505;44.022;20.458;2023-02-11T15:20:45;92.00;68.50;42.50
67714;PMS7003;54505;44.022;20.458;2023-02-11T15:23:13;81.50;58.00;38.25
67714;PMS7003;54505;44.022;20.458;2023-02-11T15:25:44;92.00;68.25;43.00
67714;PMS7003;54505;44.022;20.458;2023-02-11T15:28:27;82.50;62.50;44.50
67714;PMS7003;54505;44.022;20.458;2023-02-11T15:31:11;96.25;73.25;44.75
67714;PMS7003;54505;44.022;20.458;2023-02-11T15:33:38;91.25;64.50;43.25
67714;PMS7003;54505;44.022;20.458;2023-02-11T15:36:03;89.00;66.00;41.00
67714;PMS7003;54505;44.022;20.458;2023-02-11T15:38:29;89.25;66.00;43.25
67714;PMS7003;54505;44.022;20.458;2023-02-11T15:40:56;80.50;61.50;37.00
67714;PMS7003;54505;44.022;20.458;2023-02-11T15:43:22;99.50;72.25;47.50
67714;PMS7003;54505;44.022;20.458;2023-02-11T15:46:01;105.00;84.75;51.50
67714;PMS7003;54505;44.022;20.458;2023-02-11T15:50:53;92.50;72.25;46.25
67714;PMS7003;54505;44.022;20.458;2023-02-11T15:55:53;108.00;87.25;58.00
67714;PMS7003;54505;44.022;20.458;2023-02-11T15:58:20;109.00;87.50;48.00
67714;PMS7003;54505;44.022;20.458;2023-02-11T16:00:48;112.50;90.25;57.50
67714;PMS7003;54505;44.022;20.458;2023-02-11T16:03:18;114.00;93.50;56.00
67714;PMS7003;54505;44.022;20.458;2023-02-11T16:05:44;109.75;87.00;55.25
67714;PMS7003;54505;44.022;20.458;2023-02-11T16:08:23;131.00;115.00;70.25
67714;PMS7003;54505;44.022;20.458;2023-02-11T16:10:56;154.75;116.25;70.00
67714;PMS7003;54505;44.022;20.458;2023-02-11T16:13:23;151.25;128.25;75.00
67714;PMS7003;54505;44.022;20.458;2023-02-11T16:15:49;188.00;159.25;96.25
67714;PMS7003;54505;44.022;20.458;2023-02-11T16:18:19;228.00;180.50;108.75